createdAt,value
2017-11-17T00:00:56.930Z,29.77
2017-11-17T00:02:00.224Z,35.65
2017-11-17T00:03:03.519Z,34.17
2017-11-17T00:04:06.044Z,27.10
2017-11-17T00:05:08.602Z,31.40
2017-11-17T00:06:11.136Z,27.42
2017-11-17T00:07:13.658Z,27.10
2017-11-17T00:08:16.951Z,30.15
2017-11-17T00:09:20.273Z,32.67
2017-11-17T00:10:22.800Z,31.17
2017-11-17T00:11:26.089Z,29.17
2017-11-17T00:12:29.745Z,31.02
2017-11-17T00:13:32.266Z,32.58
2017-11-17T00:14:34.831Z,26.87
2017-11-17T00:15:37.371Z,31.45
2017-11-17T00:16:40.654Z,31.00
2017-11-17T00:17:43.946Z,26.40
2017-11-17T00:18:47.179Z,26.33
2017-11-17T00:19:49.736Z,32.20
2017-11-17T00:20:52.254Z,33.30
2017-11-17T00:21:55.542Z,28.20
2017-11-17T00:22:58.067Z,29.17
2017-11-17T00:24:00.591Z,27.30
2017-11-17T00:25:03.143Z,40.03
2017-11-17T00:26:06.476Z,33.55
2017-11-17T00:27:08.999Z,32.15
2017-11-17T00:28:11.542Z,31.50
2017-11-17T00:29:14.836Z,30.50
2017-11-17T00:30:18.130Z,28.60
2017-11-17T00:31:20.698Z,28.33
2017-11-17T00:32:23.211Z,28.55
2017-11-17T00:33:25.734Z,32.25
2017-11-17T00:34:28.359Z,32.20
2017-11-17T00:35:30.881Z,26.67
2017-11-17T00:36:33.435Z,26.37
2017-11-17T00:37:35.958Z,31.02
2017-11-17T00:38:38.501Z,30.10
2017-11-17T00:39:41.059Z,28.55
2017-11-17T00:40:43.582Z,29.85
2017-11-17T00:41:46.867Z,23.20
2017-11-17T00:42:50.196Z,28.75
2017-11-17T00:43:52.711Z,28.27
2017-11-17T00:44:56.003Z,29.23
2017-11-17T00:45:59.338Z,25.83
2017-11-17T00:47:01.869Z,29.92
2017-11-17T00:48:04.408Z,26.23
2017-11-17T00:49:07.697Z,31.15
2017-11-17T00:50:10.977Z,30.77
2017-11-17T00:51:14.318Z,29.77
2017-11-17T00:52:17.596Z,31.12
2017-11-17T00:53:20.127Z,30.90
2017-11-17T00:54:23.402Z,29.92
2017-11-17T00:55:26.692Z,29.05
2017-11-17T00:56:30.006Z,26.87
2017-11-17T00:57:32.535Z,29.15
2017-11-17T00:58:35.822Z,25.90
2017-11-17T00:59:39.143Z,29.67
2017-11-17T01:00:41.679Z,26.62
2017-11-17T01:01:44.202Z,28.45
2017-11-17T01:02:46.759Z,29.45
2017-11-17T01:03:49.275Z,28.02
2017-11-17T01:04:51.802Z,33.35
2017-11-17T01:05:54.327Z,25.35
2017-11-17T01:06:56.849Z,29.80
2017-11-17T01:07:59.399Z,27.77
2017-11-17T01:09:01.919Z,24.87
2017-11-17T01:10:04.444Z,29.70
2017-11-17T01:11:07.777Z,28.10
2017-11-17T01:12:10.316Z,32.22
2017-11-17T01:13:12.853Z,31.70
2017-11-17T01:14:15.387Z,27.77
2017-11-17T01:15:17.919Z,27.40
2017-11-17T01:16:20.497Z,26.27
2017-11-17T01:17:23.020Z,32.22
2017-11-17T01:18:25.547Z,28.45
2017-11-17T01:19:28.121Z,28.83
2017-11-17T01:20:30.703Z,26.65
2017-11-17T01:21:33.258Z,25.02
2017-11-17T01:22:35.775Z,31.52
2017-11-17T01:23:39.059Z,27.35
2017-11-17T01:24:42.344Z,28.85
2017-11-17T01:25:45.649Z,29.65
2017-11-17T01:26:48.217Z,29.90
2017-11-17T01:27:50.739Z,26.87
2017-11-17T01:28:53.271Z,31.05
2017-11-17T01:29:55.799Z,27.92
2017-11-17T01:30:58.366Z,29.37
2017-11-17T01:32:00.895Z,31.05
2017-11-17T01:33:03.414Z,24.83
2017-11-17T01:34:05.937Z,31.40
2017-11-17T01:35:08.455Z,29.10
2017-11-17T01:36:11.035Z,27.65
2017-11-17T01:37:13.546Z,27.55
2017-11-17T01:38:16.887Z,31.55
2017-11-17T01:39:19.402Z,29.95
2017-11-17T01:40:22.696Z,34.33
2017-11-17T01:41:25.212Z,30.02
2017-11-17T01:42:27.726Z,31.95
2017-11-17T01:43:30.282Z,27.75
2017-11-17T01:44:33.570Z,28.95
2017-11-17T01:45:36.851Z,33.60
2017-11-17T01:46:40.139Z,28.33
2017-11-17T01:47:43.432Z,26.73
2017-11-17T01:48:45.988Z,26.95
2017-11-17T01:49:49.307Z,27.77
2017-11-17T01:50:51.835Z,31.35
2017-11-17T01:51:55.129Z,28.00
2017-11-17T01:52:57.654Z,33.15
2017-11-17T01:54:00.203Z,25.17
2017-11-17T01:55:02.734Z,32.67
2017-11-17T01:56:05.254Z,27.42
2017-11-17T01:57:07.789Z,29.55
2017-11-17T01:58:10.352Z,30.80
2017-11-17T01:59:12.875Z,28.45
2017-11-17T02:00:16.182Z,30.48
2017-11-17T02:01:18.737Z,28.90
2017-11-17T02:02:22.049Z,31.48
2017-11-17T02:03:24.571Z,28.98
2017-11-17T02:04:27.849Z,28.87
2017-11-17T02:05:30.377Z,28.42
2017-11-17T02:06:32.928Z,26.23
2017-11-17T02:07:35.493Z,31.58
2017-11-17T02:08:38.061Z,29.10
2017-11-17T02:09:40.594Z,35.42
2017-11-17T02:10:43.945Z,29.98
2017-11-17T02:11:46.465Z,33.70
2017-11-17T02:12:48.995Z,31.15
2017-11-17T02:13:51.550Z,28.45
2017-11-17T02:14:54.070Z,27.40
2017-11-17T02:15:56.591Z,31.65
2017-11-17T02:16:59.117Z,29.52
2017-11-17T02:18:01.687Z,38.42
2017-11-17T02:19:04.219Z,28.45
2017-11-17T02:20:06.742Z,29.45
2017-11-17T02:21:09.265Z,28.52
2017-11-17T02:22:11.782Z,32.58
2017-11-17T02:23:14.359Z,30.85
2017-11-17T02:24:17.650Z,32.13
2017-11-17T02:25:20.939Z,29.52
2017-11-17T02:26:24.257Z,30.48
2017-11-17T02:27:26.781Z,32.67
2017-11-17T02:28:30.069Z,32.50
2017-11-17T02:29:33.395Z,32.08
2017-11-17T02:30:35.909Z,32.05
2017-11-17T02:31:39.236Z,36.10
2017-11-17T02:32:41.759Z,34.17
2017-11-17T02:33:45.047Z,36.63
2017-11-17T02:34:48.383Z,31.98
2017-11-17T02:35:50.918Z,36.47
2017-11-17T02:36:53.439Z,31.67
2017-11-17T02:37:56.010Z,27.33
2017-11-17T02:38:58.580Z,28.48
2017-11-17T02:40:01.099Z,32.90
2017-11-17T02:41:03.618Z,33.33
2017-11-17T02:42:06.143Z,33.00
2017-11-17T02:43:08.706Z,28.77
2017-11-17T02:44:11.234Z,27.62
2017-11-17T02:45:14.543Z,28.77
2017-11-17T02:46:17.065Z,33.08
2017-11-17T02:47:19.591Z,29.80
2017-11-17T02:48:22.151Z,31.83
2017-11-17T02:49:24.674Z,35.88
2017-11-17T02:50:27.960Z,28.75
2017-11-17T02:51:31.247Z,33.35
2017-11-17T02:52:34.566Z,32.05
2017-11-17T02:53:37.082Z,32.55
2017-11-17T02:54:40.379Z,34.08
2017-11-17T02:55:43.668Z,31.12
2017-11-17T02:56:46.960Z,27.60
2017-11-17T02:57:49.516Z,37.60
2017-11-17T02:58:52.812Z,37.78
2017-11-17T02:59:55.364Z,31.12
2017-11-17T03:00:58.650Z,27.13
2017-11-17T03:02:01.935Z,34.35
2017-11-17T03:03:05.272Z,34.20
2017-11-17T03:04:07.786Z,31.48
2017-11-17T03:05:11.067Z,33.50
2017-11-17T03:06:14.374Z,35.05
2017-11-17T03:07:16.900Z,39.33
2017-11-17T03:08:19.455Z,33.35
2017-11-17T03:09:21.974Z,33.08
2017-11-17T03:10:24.494Z,31.42
2017-11-17T03:11:27.035Z,36.00
2017-11-17T03:12:29.558Z,38.65
2017-11-17T03:13:32.140Z,35.20
2017-11-17T03:14:34.695Z,36.13
2017-11-17T03:15:37.227Z,36.67
2017-11-17T03:16:39.756Z,29.95
2017-11-17T03:17:42.274Z,36.67
2017-11-17T03:18:45.597Z,35.80
2017-11-17T03:19:48.154Z,34.63
2017-11-17T03:20:50.670Z,44.28
2017-11-17T03:21:53.230Z,38.20
2017-11-17T03:22:55.763Z,36.58
2017-11-17T03:23:58.284Z,35.90
2017-11-17T03:25:01.565Z,38.25
2017-11-17T03:26:04.854Z,37.80
2017-11-17T03:27:08.181Z,42.38
2017-11-17T03:28:11.480Z,35.00
2017-11-17T03:29:14.005Z,40.20
2017-11-17T03:30:16.531Z,39.10
2017-11-17T03:31:19.086Z,38.42
2017-11-17T03:32:21.603Z,33.40
2017-11-17T03:33:24.125Z,31.67
2017-11-17T03:34:26.646Z,35.20
2017-11-17T03:35:29.198Z,33.53
2017-11-17T03:36:31.727Z,32.10
2017-11-17T03:37:34.292Z,33.53
2017-11-17T03:38:36.812Z,39.85
2017-11-17T03:39:39.326Z,37.60
2017-11-17T03:40:41.901Z,38.05
2017-11-17T03:41:44.423Z,38.10
2017-11-17T03:42:46.981Z,32.78
2017-11-17T03:43:49.499Z,34.97
2017-11-17T03:44:52.031Z,36.05
2017-11-17T03:45:54.565Z,35.42
2017-11-17T03:46:57.086Z,36.00
2017-11-17T03:47:59.653Z,37.63
2017-11-17T03:49:02.226Z,35.30
2017-11-17T03:50:04.746Z,41.03
2017-11-17T03:51:07.284Z,44.25
2017-11-17T03:52:10.572Z,34.88
2017-11-17T03:53:13.095Z,33.92
2017-11-17T03:54:15.665Z,40.22
2017-11-17T03:55:18.188Z,40.12
2017-11-17T03:56:20.711Z,35.83
2017-11-17T03:57:23.234Z,37.75
2017-11-17T03:58:25.755Z,42.83
2017-11-17T03:59:29.073Z,42.38
2017-11-17T04:00:31.600Z,36.83
2017-11-17T04:01:34.886Z,39.97
2017-11-17T04:02:38.174Z,40.42
2017-11-17T04:03:41.522Z,35.67
2017-11-17T04:04:44.046Z,35.25
2017-11-17T04:05:46.566Z,33.30
2017-11-17T04:06:49.103Z,36.30
2017-11-17T04:07:51.621Z,31.85
2017-11-17T04:08:54.945Z,34.45
2017-11-17T04:09:57.475Z,28.52
2017-11-17T04:11:00.051Z,27.87
2017-11-17T04:12:02.574Z,40.05
2017-11-17T04:13:05.101Z,37.47
2017-11-17T04:14:07.623Z,36.78
2017-11-17T04:15:10.142Z,30.08
2017-11-17T04:16:12.713Z,31.90
2017-11-17T04:17:15.243Z,30.35
2017-11-17T04:18:17.775Z,28.92
2017-11-17T04:19:20.298Z,33.90
2017-11-17T04:20:22.828Z,30.92
2017-11-17T04:21:26.159Z,29.95
2017-11-17T04:22:28.692Z,33.47
2017-11-17T04:23:31.974Z,28.67
2017-11-17T04:24:35.264Z,31.70
2017-11-17T04:25:37.786Z,35.72
2017-11-17T04:26:40.351Z,37.88
2017-11-17T04:27:42.878Z,32.38
2017-11-17T04:28:45.398Z,36.63
2017-11-17T04:29:47.918Z,32.97
2017-11-17T04:30:50.467Z,30.52
2017-11-17T04:31:53.040Z,26.98
2017-11-17T04:32:55.558Z,32.78
2017-11-17T04:33:58.080Z,26.95
2017-11-17T04:35:00.609Z,29.73
2017-11-17T04:36:03.936Z,27.98
2017-11-17T04:37:06.453Z,33.72
2017-11-17T04:38:09.749Z,28.23
2017-11-17T04:39:13.029Z,25.67
2017-11-17T04:40:16.310Z,26.58
2017-11-17T04:41:19.721Z,31.05
2017-11-17T04:42:22.242Z,23.83
2017-11-17T04:43:24.759Z,26.80
2017-11-17T04:44:27.278Z,25.98
2017-11-17T04:45:29.796Z,23.52
2017-11-17T04:46:32.362Z,27.13
2017-11-17T04:47:34.885Z,28.10
2017-11-17T04:48:38.171Z,24.87
2017-11-17T04:49:41.453Z,24.25
2017-11-17T04:50:44.738Z,23.08
2017-11-17T04:51:47.305Z,30.02
2017-11-17T04:52:50.585Z,25.25
2017-11-17T04:53:53.871Z,29.75
2017-11-17T04:54:57.159Z,30.33
2017-11-17T04:56:00.438Z,27.58
2017-11-17T04:57:03.767Z,25.52
2017-11-17T04:58:06.295Z,32.22
2017-11-17T04:59:09.582Z,31.30
2017-11-17T05:00:12.867Z,31.65
2017-11-17T05:01:16.151Z,26.20
2017-11-17T05:02:19.468Z,27.30
2017-11-17T05:03:21.996Z,28.20
2017-11-17T05:04:24.523Z,28.15
2017-11-17T05:05:27.039Z,33.55
2017-11-17T05:06:29.599Z,27.00
2017-11-17T05:07:32.920Z,30.27
2017-11-17T05:08:35.450Z,28.48
2017-11-17T05:09:38.737Z,25.75
2017-11-17T05:10:41.391Z,29.33
2017-11-17T05:11:44.723Z,22.42
2017-11-17T05:12:47.238Z,29.63
2017-11-17T05:13:50.525Z,27.35
2017-11-17T05:14:53.815Z,27.08
2017-11-17T05:15:57.104Z,27.90
2017-11-17T05:17:00.428Z,28.42
2017-11-17T05:18:02.941Z,30.92
2017-11-17T05:19:06.232Z,24.42
2017-11-17T05:20:09.521Z,25.75
2017-11-17T05:21:12.814Z,23.58
2017-11-17T05:22:15.376Z,24.02
2017-11-17T05:23:17.903Z,24.70
2017-11-17T05:24:20.424Z,21.85
2017-11-17T05:25:22.947Z,19.35
2017-11-17T05:26:25.466Z,25.45
2017-11-17T05:27:28.020Z,23.98
2017-11-17T05:28:30.579Z,24.12
2017-11-17T05:29:33.095Z,24.98
2017-11-17T05:30:35.622Z,20.83
2017-11-17T05:31:38.147Z,21.87
2017-11-17T05:32:41.429Z,23.85
2017-11-17T05:33:44.765Z,24.00
2017-11-17T05:34:47.325Z,19.25
2017-11-17T05:35:49.851Z,21.00
2017-11-17T05:36:53.133Z,18.60
2017-11-17T05:37:55.679Z,20.55
2017-11-17T05:38:58.238Z,19.70
2017-11-17T05:40:00.762Z,21.45
2017-11-17T05:41:03.283Z,21.17
2017-11-17T05:42:05.803Z,21.37
2017-11-17T05:43:08.337Z,18.02
2017-11-17T05:44:11.662Z,21.90
2017-11-17T05:45:14.187Z,21.92
2017-11-17T05:46:17.470Z,21.15
2017-11-17T05:47:20.758Z,19.23
2017-11-17T05:48:24.094Z,20.45
2017-11-17T05:49:26.607Z,18.50
2017-11-17T05:50:29.894Z,19.73
2017-11-17T05:51:33.178Z,20.73
2017-11-17T05:52:36.463Z,20.23
2017-11-17T05:53:39.044Z,19.98
2017-11-17T05:54:41.561Z,20.23
2017-11-17T05:55:44.092Z,21.33
2017-11-17T05:56:46.618Z,21.62
2017-11-17T05:57:49.904Z,22.08
2017-11-17T05:58:53.231Z,21.15
2017-11-17T05:59:55.769Z,22.77
2017-11-17T06:00:58.295Z,20.12
2017-11-17T06:02:00.819Z,20.88
2017-11-17T06:03:03.373Z,21.58
2017-11-17T06:04:05.904Z,23.80
2017-11-17T06:05:08.427Z,22.23
2017-11-17T06:06:10.946Z,21.85
2017-11-17T06:07:14.230Z,21.05
2017-11-17T06:08:17.546Z,23.98
2017-11-17T06:09:20.067Z,20.95
2017-11-17T06:10:22.623Z,21.65
2017-11-17T06:11:25.151Z,20.77
2017-11-17T06:12:27.710Z,18.05
2017-11-17T06:13:30.239Z,22.15
2017-11-17T06:15:42.538Z,21.42
2017-11-17T06:16:45.867Z,25.05
2017-11-17T06:17:48.430Z,24.23
2017-11-17T06:18:50.991Z,30.42
2017-11-17T06:19:53.507Z,19.60
2017-11-17T06:20:56.036Z,25.25
2017-11-17T06:21:58.567Z,21.27
2017-11-17T06:23:01.888Z,19.87
2017-11-17T06:24:04.442Z,21.65
2017-11-17T06:25:06.963Z,25.33
2017-11-17T06:26:09.494Z,22.62
2017-11-17T06:27:12.042Z,23.92
2017-11-17T06:28:14.555Z,20.70
2017-11-17T06:29:17.080Z,21.00
2017-11-17T06:30:19.600Z,22.50
2017-11-17T06:31:22.906Z,26.50
2017-11-17T06:32:25.460Z,23.42
2017-11-17T06:33:28.747Z,30.37
2017-11-17T06:34:32.034Z,23.92
2017-11-17T06:35:34.565Z,27.60
2017-11-17T06:36:37.115Z,30.05
2017-11-17T06:37:39.684Z,24.87
2017-11-17T06:38:42.215Z,29.50
2017-11-17T06:39:44.732Z,28.38
2017-11-17T06:40:47.245Z,22.55
2017-11-17T06:41:49.762Z,26.77
2017-11-17T06:42:52.345Z,28.55
2017-11-17T06:43:55.634Z,21.85
2017-11-17T06:44:58.919Z,23.73
2017-11-17T06:46:02.207Z,22.92
2017-11-17T06:47:05.496Z,23.77
2017-11-17T06:48:08.818Z,23.38
2017-11-17T06:49:11.387Z,26.50
2017-11-17T06:50:13.906Z,26.40
2017-11-17T06:51:17.196Z,23.75
2017-11-17T06:52:20.488Z,23.12
2017-11-17T06:53:23.009Z,18.73
2017-11-17T06:54:25.590Z,24.05
2017-11-17T06:55:28.102Z,21.35
2017-11-17T06:56:30.626Z,24.45
2017-11-17T06:57:33.910Z,22.95
2017-11-17T06:58:39.015Z,25.52
2017-11-17T06:59:41.587Z,22.27
2017-11-17T07:00:44.110Z,24.12
2017-11-17T07:01:46.632Z,24.90
2017-11-17T07:02:49.932Z,18.87
2017-11-17T07:03:53.218Z,22.73
2017-11-17T07:04:56.547Z,19.80
2017-11-17T07:05:59.073Z,20.80
2017-11-17T07:07:01.592Z,21.08
2017-11-17T07:08:04.121Z,23.95
2017-11-17T07:09:06.648Z,25.42
2017-11-17T07:10:09.975Z,22.33
2017-11-17T07:11:12.491Z,17.20
2017-11-17T07:12:15.007Z,25.45
2017-11-17T07:13:17.540Z,22.87
2017-11-17T07:14:20.830Z,22.65
2017-11-17T07:15:24.167Z,18.85
2017-11-17T07:16:26.688Z,26.42
2017-11-17T07:17:29.219Z,22.25
2017-11-17T07:18:31.746Z,20.02
2017-11-17T07:19:34.276Z,20.08
2017-11-17T07:20:37.598Z,22.20
2017-11-17T07:21:40.118Z,26.23
2017-11-17T07:22:43.439Z,22.40
2017-11-17T07:23:45.960Z,24.20
2017-11-17T07:24:48.481Z,21.48
2017-11-17T07:25:51.000Z,23.33
2017-11-17T07:26:54.318Z,23.67
2017-11-17T07:27:56.841Z,21.58
2017-11-17T07:29:00.139Z,20.05
2017-11-17T07:30:03.422Z,22.25
2017-11-17T07:31:06.707Z,21.58
2017-11-17T07:32:10.023Z,19.23
2017-11-17T07:33:12.542Z,24.65
2017-11-17T07:34:15.827Z,22.48
2017-11-17T07:35:19.118Z,27.67
2017-11-17T07:36:22.402Z,22.02
2017-11-17T07:37:24.974Z,26.17
2017-11-17T07:38:28.266Z,24.45
2017-11-17T07:39:30.792Z,25.60
2017-11-17T07:40:33.315Z,27.17
2017-11-17T07:41:35.845Z,23.98
2017-11-17T07:42:39.180Z,25.02
2017-11-17T07:43:41.707Z,24.45
2017-11-17T07:44:45.028Z,24.40
2017-11-17T07:45:47.550Z,29.35
2017-11-17T07:46:50.844Z,25.23
2017-11-17T07:47:53.411Z,25.52
2017-11-17T07:48:55.937Z,31.95
2017-11-17T07:49:58.465Z,23.70
2017-11-17T07:51:00.983Z,24.85
2017-11-17T07:52:03.508Z,23.35
2017-11-17T07:53:06.063Z,21.30
2017-11-17T07:54:08.590Z,24.30
2017-11-17T07:55:11.877Z,20.62
2017-11-17T07:56:14.430Z,23.02
2017-11-17T07:57:16.956Z,22.48
2017-11-17T07:58:19.515Z,25.67
2017-11-17T07:59:22.044Z,28.70
2017-11-17T08:00:25.327Z,28.50
2017-11-17T08:01:28.652Z,29.58
2017-11-17T08:02:31.175Z,24.30
2017-11-17T08:03:34.462Z,25.60
2017-11-17T08:04:37.755Z,22.87
2017-11-17T08:05:40.278Z,23.85
2017-11-17T08:06:42.856Z,23.73
2017-11-17T08:07:45.380Z,23.48
2017-11-17T08:08:47.915Z,23.65
2017-11-17T08:09:51.212Z,20.62
2017-11-17T08:10:53.730Z,20.30
2017-11-17T08:11:56.278Z,19.20
2017-11-17T08:12:58.791Z,15.73
2017-11-17T08:14:02.079Z,19.65
2017-11-17T08:15:04.679Z,20.88
2017-11-17T08:16:07.238Z,20.88
2017-11-17T08:17:21.600Z,20.73
2017-11-17T08:18:30.883Z,20.50
2017-11-17T08:19:34.168Z,17.25
2017-11-17T08:20:36.688Z,18.95
2017-11-17T08:21:39.246Z,29.33
2017-11-17T08:22:41.770Z,21.12
2017-11-17T08:23:44.302Z,23.92
2017-11-17T08:24:46.823Z,21.92
2017-11-17T08:25:49.343Z,23.10
2017-11-17T08:26:51.926Z,22.52
2017-11-17T08:27:55.208Z,23.65
2017-11-17T08:28:58.539Z,25.48
2017-11-17T08:30:01.064Z,20.65
2017-11-17T08:31:04.359Z,25.45
2017-11-17T08:32:06.914Z,21.65
2017-11-17T08:33:10.226Z,21.98
2017-11-17T08:34:12.742Z,19.67
2017-11-17T08:35:16.043Z,22.02
2017-11-17T08:36:19.325Z,24.37
2017-11-17T08:37:22.606Z,25.05
2017-11-17T08:38:25.918Z,21.42
2017-11-17T08:39:28.439Z,21.23
2017-11-17T08:40:31.004Z,20.83
2017-11-17T08:41:33.564Z,19.02
2017-11-17T08:42:36.099Z,21.30
2017-11-17T08:43:38.627Z,19.95
2017-11-17T08:44:41.924Z,22.40
2017-11-17T08:45:44.484Z,23.30
2017-11-17T08:46:47.007Z,22.52
2017-11-17T08:47:49.526Z,24.77
2017-11-17T08:48:52.079Z,32.72
2017-11-17T08:49:54.606Z,22.55
2017-11-17T08:50:57.163Z,24.98
2017-11-17T08:51:59.678Z,27.60
2017-11-17T08:53:02.205Z,32.00
2017-11-17T08:54:04.760Z,28.83
2017-11-17T08:55:07.283Z,25.48
2017-11-17T08:56:09.815Z,27.00
2017-11-17T08:57:12.373Z,29.27
2017-11-17T08:58:14.890Z,23.15
2017-11-17T08:59:17.436Z,29.23
2017-11-17T09:00:20.755Z,29.20
2017-11-17T09:01:23.279Z,21.33
2017-11-17T09:02:26.571Z,25.35
2017-11-17T09:03:29.124Z,26.58
2017-11-17T09:04:32.419Z,32.08
2017-11-17T09:05:35.704Z,25.92
2017-11-17T09:06:38.984Z,24.52
2017-11-17T09:07:42.275Z,22.08
2017-11-17T09:08:44.835Z,22.17
2017-11-17T09:09:48.172Z,25.62
2017-11-17T09:10:50.710Z,17.67
2017-11-17T09:11:53.234Z,19.20
2017-11-17T09:12:55.760Z,19.15
2017-11-17T09:13:58.282Z,17.12
2017-11-17T09:15:01.599Z,20.33
2017-11-17T09:16:04.123Z,22.33
2017-11-17T09:17:07.474Z,26.65
2017-11-17T09:18:09.986Z,18.70
2017-11-17T09:19:13.291Z,24.33
2017-11-17T09:20:15.843Z,21.05
2017-11-17T09:21:18.375Z,18.60
2017-11-17T09:22:20.903Z,21.67
2017-11-17T09:23:23.455Z,18.90
2017-11-17T09:24:25.974Z,23.23
2017-11-17T09:25:28.531Z,28.73
2017-11-17T09:26:31.054Z,20.52
2017-11-17T09:27:33.606Z,16.50
2017-11-17T09:28:36.127Z,21.58
2017-11-17T09:29:38.672Z,18.65
2017-11-17T09:30:41.192Z,25.15
2017-11-17T09:31:44.525Z,21.42
2017-11-17T09:32:47.062Z,19.58
2017-11-17T09:33:49.584Z,18.50
2017-11-17T09:34:52.104Z,18.42
2017-11-17T09:35:54.619Z,20.50
2017-11-17T09:36:57.176Z,24.52
2017-11-17T09:37:59.747Z,18.40
2017-11-17T09:39:02.274Z,24.80
2017-11-17T09:40:04.790Z,20.08
2017-11-17T09:41:07.308Z,19.23
2017-11-17T09:42:09.825Z,19.70
2017-11-17T09:43:13.151Z,18.42
2017-11-17T09:44:15.667Z,27.37
2017-11-17T09:45:18.188Z,30.83
2017-11-17T09:46:20.717Z,22.48
2017-11-17T09:47:24.003Z,22.50
2017-11-17T09:48:26.563Z,23.00
2017-11-17T09:50:39.479Z,17.60
2017-11-17T09:51:42.761Z,24.00
2017-11-17T09:52:46.046Z,25.20
2017-11-17T09:53:49.375Z,25.12
2017-11-17T09:54:51.901Z,28.15
2017-11-17T09:55:55.194Z,31.62
2017-11-17T09:56:57.917Z,30.52
2017-11-17T09:58:00.431Z,25.17
2017-11-17T09:59:02.979Z,23.95
2017-11-17T10:00:06.313Z,24.35
2017-11-17T10:01:08.891Z,29.48
2017-11-17T10:02:11.419Z,24.20
2017-11-17T10:03:13.946Z,33.75
2017-11-17T10:04:16.471Z,28.55
2017-11-17T10:05:19.032Z,23.95
2017-11-17T10:06:21.560Z,24.80
2017-11-17T10:07:24.867Z,21.00
2017-11-17T10:08:27.386Z,19.45
2017-11-17T10:09:29.927Z,25.17
2017-11-17T10:10:32.478Z,27.17
2017-11-17T10:11:35.002Z,23.00
2017-11-17T10:12:38.337Z,21.60
2017-11-17T10:13:40.863Z,26.30
2017-11-17T10:14:44.172Z,24.73
2017-11-17T10:15:46.694Z,18.80
2017-11-17T10:16:50.052Z,21.17
2017-11-17T10:17:52.585Z,23.80
2017-11-17T10:18:55.119Z,20.55
2017-11-17T10:19:58.419Z,26.50
2017-11-17T10:21:01.737Z,26.35
2017-11-17T10:22:04.302Z,24.65
2017-11-17T10:23:06.831Z,23.25
2017-11-17T10:24:10.119Z,30.33
2017-11-17T10:25:12.654Z,29.37
2017-11-17T10:26:15.249Z,26.70
2017-11-17T10:27:18.537Z,26.33
2017-11-17T10:28:21.823Z,21.35
2017-11-17T10:29:24.354Z,28.65
2017-11-17T10:30:26.885Z,32.92
2017-11-17T10:31:29.447Z,25.02
2017-11-17T10:32:31.970Z,23.08
2017-11-17T10:33:35.259Z,26.92
2017-11-17T10:34:38.559Z,21.83
2017-11-17T10:35:41.087Z,28.62
2017-11-17T10:36:43.651Z,19.65
2017-11-17T10:37:46.210Z,22.55
2017-11-17T10:38:48.739Z,23.75
2017-11-17T10:39:51.277Z,22.55
2017-11-17T10:40:54.586Z,23.42
2017-11-17T10:41:57.150Z,24.90
2017-11-17T10:42:59.736Z,21.17
2017-11-17T10:44:02.255Z,18.67
2017-11-17T10:45:05.574Z,18.37
2017-11-17T10:46:08.102Z,23.70
2017-11-17T10:47:11.417Z,21.95
2017-11-17T10:48:13.945Z,17.08
2017-11-17T10:49:16.503Z,25.25
2017-11-17T10:50:19.027Z,17.20
2017-11-17T10:51:21.550Z,17.05
2017-11-17T10:52:24.838Z,15.75
2017-11-17T10:53:28.174Z,19.80
2017-11-17T10:54:30.707Z,23.10
2017-11-17T10:55:33.234Z,21.00
2017-11-17T10:56:35.764Z,25.80
2017-11-17T10:57:38.315Z,22.75
2017-11-17T10:58:41.658Z,22.67
2017-11-17T10:59:45.895Z,25.58
2017-11-17T11:00:48.413Z,25.45
2017-11-17T11:01:50.946Z,27.13
2017-11-17T11:02:53.475Z,28.27
2017-11-17T11:03:56.791Z,24.30
2017-11-17T11:04:59.359Z,18.75
2017-11-17T11:06:01.875Z,24.35
2017-11-17T11:07:04.391Z,20.73
2017-11-17T11:08:06.923Z,27.92
2017-11-17T11:09:10.215Z,21.83
2017-11-17T11:10:12.796Z,19.90
2017-11-17T11:11:21.103Z,33.22
2017-11-17T11:12:23.663Z,18.12
2017-11-17T11:13:26.192Z,24.10
2017-11-17T11:14:28.838Z,23.38
2017-11-17T11:15:31.355Z,24.83
2017-11-17T11:16:33.872Z,15.77
2017-11-17T11:17:36.393Z,14.35
2017-11-17T11:18:38.915Z,24.80
2017-11-17T11:19:41.474Z,27.52
2017-11-17T11:20:43.996Z,25.62
2017-11-17T11:21:46.510Z,25.00
2017-11-17T11:22:49.031Z,24.70
2017-11-17T11:23:51.554Z,23.30
2017-11-17T11:24:54.899Z,22.05
2017-11-17T11:25:57.425Z,16.80
2017-11-17T11:27:00.728Z,16.50
2017-11-17T11:28:03.243Z,18.70
2017-11-17T11:29:05.923Z,17.42
2017-11-17T11:30:08.484Z,25.48
2017-11-17T11:31:11.013Z,17.20
2017-11-17T11:32:13.535Z,18.35
2017-11-17T11:33:16.834Z,14.00
2017-11-17T11:34:19.363Z,21.77
2017-11-17T11:35:21.931Z,20.90
2017-11-17T11:36:24.460Z,21.75
2017-11-17T11:37:26.987Z,23.23
2017-11-17T11:38:30.283Z,21.50
2017-11-17T11:39:32.803Z,15.68
2017-11-17T11:40:35.375Z,18.65
2017-11-17T11:41:37.948Z,15.80
2017-11-17T11:42:40.474Z,16.75
2017-11-17T11:43:42.998Z,17.92
2017-11-17T11:44:46.288Z,18.40
2017-11-17T11:45:48.811Z,26.10
2017-11-17T11:46:51.374Z,20.58
2017-11-17T11:47:53.900Z,16.37
2017-11-17T11:48:56.426Z,16.75
2017-11-17T11:49:58.952Z,22.52
2017-11-17T11:51:01.488Z,24.73
2017-11-17T11:52:04.046Z,20.60
2017-11-17T11:53:07.378Z,16.65
2017-11-17T11:54:09.945Z,12.70
2017-11-17T11:55:12.467Z,25.37
2017-11-17T11:56:14.994Z,23.50
2017-11-17T11:57:17.528Z,21.60
2017-11-17T11:58:20.063Z,14.18
2017-11-17T11:59:22.632Z,15.15
2017-11-17T12:00:25.167Z,15.47
2017-11-17T12:01:27.701Z,21.03
2017-11-17T12:02:30.243Z,16.35
2017-11-17T12:03:32.763Z,18.73
2017-11-17T12:04:35.344Z,17.77
2017-11-17T12:05:37.863Z,20.17
2017-11-17T12:06:40.399Z,19.83
2017-11-17T12:07:42.927Z,11.55
2017-11-17T12:08:45.458Z,22.85
2017-11-17T12:09:48.024Z,15.70
2017-11-17T12:10:50.545Z,17.33
2017-11-17T12:11:53.835Z,19.62
2017-11-17T12:12:57.132Z,31.15
2017-11-17T12:13:59.660Z,15.80
2017-11-17T12:15:02.231Z,19.90
2017-11-17T12:16:04.763Z,12.82
2017-11-17T12:17:07.286Z,24.12
2017-11-17T12:18:10.574Z,26.23
2017-11-17T12:19:13.102Z,19.98
2017-11-17T12:20:15.663Z,27.60
2017-11-17T12:21:18.235Z,13.73
2017-11-17T12:22:20.767Z,12.00
2017-11-17T12:23:23.298Z,19.63
2017-11-17T12:24:26.627Z,18.20
2017-11-17T12:25:29.200Z,18.57
2017-11-17T12:26:31.771Z,12.90
2017-11-17T12:27:34.304Z,16.43
2017-11-17T12:28:36.874Z,25.00
2017-11-17T12:29:39.398Z,14.63
2017-11-17T12:30:41.927Z,25.93
2017-11-17T12:31:44.451Z,16.97
2017-11-17T12:32:47.779Z,13.50
2017-11-17T12:33:50.304Z,11.23
2017-11-17T12:34:52.839Z,15.60
2017-11-17T12:35:55.366Z,18.80
2017-11-17T12:36:57.897Z,17.33
2017-11-17T12:38:00.485Z,12.60
2017-11-17T12:39:03.008Z,16.00
2017-11-17T12:40:05.634Z,17.47
2017-11-17T12:41:08.158Z,20.30
2017-11-17T12:42:11.447Z,15.10
2017-11-17T12:43:14.770Z,11.67
2017-11-17T12:44:17.294Z,17.40
2017-11-17T12:45:20.614Z,14.10
2017-11-17T12:46:23.133Z,12.63
2017-11-17T12:47:26.421Z,20.57
2017-11-17T12:48:29.712Z,18.93
2017-11-17T12:49:32.279Z,20.95
2017-11-17T12:50:34.819Z,21.85
2017-11-17T12:51:37.351Z,15.55
2017-11-17T12:52:39.874Z,18.35
2017-11-17T12:53:42.392Z,18.27
2017-11-17T12:54:44.949Z,28.62
2017-11-17T12:55:47.476Z,17.05
2017-11-17T12:56:50.765Z,18.73
2017-11-17T12:57:53.301Z,18.60
2017-11-17T12:58:55.868Z,14.20
2017-11-17T12:59:58.390Z,14.35
2017-11-17T13:01:00.953Z,13.27
2017-11-17T13:02:03.486Z,18.50
2017-11-17T13:03:06.779Z,29.25
2017-11-17T13:04:10.059Z,17.33
2017-11-17T13:05:13.344Z,22.58
2017-11-17T13:06:16.673Z,21.02
2017-11-17T13:07:19.195Z,20.25
2017-11-17T13:08:21.721Z,24.15
2017-11-17T13:09:24.246Z,14.73
2017-11-17T13:10:26.763Z,13.38
2017-11-17T13:11:29.330Z,17.20
2017-11-17T13:12:31.850Z,18.35
2017-11-17T13:13:34.365Z,18.30
2017-11-17T13:14:36.888Z,18.25
2017-11-17T13:15:39.431Z,26.75
2017-11-17T13:16:41.987Z,15.27
2017-11-17T13:17:45.287Z,14.40
2017-11-17T13:18:48.151Z,27.80
2017-11-17T13:19:50.675Z,19.00
2017-11-17T13:20:53.230Z,13.55
2017-11-17T13:21:55.761Z,16.20
2017-11-17T13:22:58.293Z,21.95
2017-11-17T13:24:01.584Z,19.50
2017-11-17T13:25:04.899Z,11.95
2017-11-17T13:26:07.430Z,16.85
2017-11-17T13:27:10.749Z,13.13
2017-11-17T13:28:13.285Z,21.73
2017-11-17T13:29:16.578Z,9.27
2017-11-17T13:30:19.862Z,16.10
2017-11-17T13:31:22.397Z,18.00